sensor_id;sensor_type;location;lat;lon;timestamp;temperature;humidity
68189;DHT22;55008;47.514;19.218;2022-10-16T00:01:51;13.71;82.25
68189;DHT22;55008;47.514;19.218;2022-10-16T00:04:21;13.68;81.88
68189;DHT22;55008;47.514;19.218;2022-10-16T00:06:50;13.63;82.18
68189;DHT22;55008;47.514;19.218;2022-10-16T00:09:19;13.61;82.40
68189;DHT22;55008;47.514;19.218;2022-10-16T00:11:50;13.58;82.47
68189;DHT22;55008;47.514;19.218;2022-10-16T00:14:25;13.54;82.25
68189;DHT22;55008;47.514;19.218;2022-10-16T00:16:53;13.52;82.67
68189;DHT22;55008;47.514;19.218;2022-10-16T00:19:23;13.52;82.35
68189;DHT22;55008;47.514;19.218;2022-10-16T00:21:52;13.50;82.34
68189;DHT22;55008;47.514;19.218;2022-10-16T00:24:21;13.55;81.97
68189;DHT22;55008;47.514;19.218;2022-10-16T00:26:50;13.48;82.07
68189;DHT22;55008;47.514;19.218;2022-10-16T00:29:18;13.50;81.92
68189;DHT22;55008;47.514;19.218;2022-10-16T00:31:48;13.48;81.83
68189;DHT22;55008;47.514;19.218;2022-10-16T00:34:16;13.48;81.59
68189;DHT22;55008;47.514;19.218;2022-10-16T00:36:45;13.47;81.26
68189;DHT22;55008;47.514;19.218;2022-10-16T00:39:19;13.45;81.09
68189;DHT22;55008;47.514;19.218;2022-10-16T00:41:49;13.51;80.77
68189;DHT22;55008;47.514;19.218;2022-10-16T00:44:49;13.48;80.85
68189;DHT22;55008;47.514;19.218;2022-10-16T00:47:24;13.45;81.19
68189;DHT22;55008;47.514;19.218;2022-10-16T00:49:58;13.42;80.98
68189;DHT22;55008;47.514;19.218;2022-10-16T00:52:28;13.40;81.19
68189;DHT22;55008;47.514;19.218;2022-10-16T00:54:57;13.40;81.02
68189;DHT22;55008;47.514;19.218;2022-10-16T00:57:27;13.41;80.41
68189;DHT22;55008;47.514;19.218;2022-10-16T00:59:59;13.38;80.27
68189;DHT22;55008;47.514;19.218;2022-10-16T01:02:30;13.38;80.27
68189;DHT22;55008;47.514;19.218;2022-10-16T01:05:00;13.40;80.52
68189;DHT22;55008;47.514;19.218;2022-10-16T01:07:39;13.34;80.86
68189;DHT22;55008;47.514;19.218;2022-10-16T01:10:18;13.35;80.31
68189;DHT22;55008;47.514;19.218;2022-10-16T01:12:51;13.34;80.33
68189;DHT22;55008;47.514;19.218;2022-10-16T01:15:26;13.32;79.67
68189;DHT22;55008;47.514;19.218;2022-10-16T01:18:01;13.34;79.68
68189;DHT22;55008;47.514;19.218;2022-10-16T01:20:37;13.32;79.18
68189;DHT22;55008;47.514;19.218;2022-10-16T01:23:21;13.30;79.66
68189;DHT22;55008;47.514;19.218;2022-10-16T01:26:05;13.28;79.64
68189;DHT22;55008;47.514;19.218;2022-10-16T01:28:40;13.27;79.15
68189;DHT22;55008;47.514;19.218;2022-10-16T01:31:11;13.24;79.51
68189;DHT22;55008;47.514;19.218;2022-10-16T01:33:47;13.21;79.29
68189;DHT22;55008;47.514;19.218;2022-10-16T01:36:16;13.14;79.31
68189;DHT22;55008;47.514;19.218;2022-10-16T01:38:50;13.11;79.45
68189;DHT22;55008;47.514;19.218;2022-10-16T01:41:22;13.06;79.81
68189;DHT22;55008;47.514;19.218;2022-10-16T01:43:59;13.00;80.45
68189;DHT22;55008;47.514;19.218;2022-10-16T01:46:30;12.99;80.13
68189;DHT22;55008;47.514;19.218;2022-10-16T01:49:02;12.90;80.79
68189;DHT22;55008;47.514;19.218;2022-10-16T01:51:32;12.90;80.04
68189;DHT22;55008;47.514;19.218;2022-10-16T01:54:04;12.77;80.52
68189;DHT22;55008;47.514;19.218;2022-10-16T01:56:36;12.67;81.13
68189;DHT22;55008;47.514;19.218;2022-10-16T01:59:11;12.66;80.87
68189;DHT22;55008;47.514;19.218;2022-10-16T02:01:43;12.62;80.46
68189;DHT22;55008;47.514;19.218;2022-10-16T02:04:15;12.52;80.60
68189;DHT22;55008;47.514;19.218;2022-10-16T02:06:46;12.42;80.84
68189;DHT22;55008;47.514;19.218;2022-10-16T02:09:16;12.44;80.82
68189;DHT22;55008;47.514;19.218;2022-10-16T02:11:45;12.39;80.59
68189;DHT22;55008;47.514;19.218;2022-10-16T02:14:18;12.21;81.08
68189;DHT22;55008;47.514;19.218;2022-10-16T02:16:46;12.15;81.10
68189;DHT22;55008;47.514;19.218;2022-10-16T02:19:16;12.11;80.98
68189;DHT22;55008;47.514;19.218;2022-10-16T02:21:50;12.02;81.29
68189;DHT22;55008;47.514;19.218;2022-10-16T02:24:24;11.97;81.62
68189;DHT22;55008;47.514;19.218;2022-10-16T02:27:00;11.86;81.97
68189;DHT22;55008;47.514;19.218;2022-10-16T02:29:37;11.69;82.85
68189;DHT22;55008;47.514;19.218;2022-10-16T02:32:08;11.62;83.07
68189;DHT22;55008;47.514;19.218;2022-10-16T02:34:39;11.49;83.61
68189;DHT22;55008;47.514;19.218;2022-10-16T02:37:10;11.33;84.01
68189;DHT22;55008;47.514;19.218;2022-10-16T02:39:40;11.26;84.35
68189;DHT22;55008;47.514;19.218;2022-10-16T02:42:10;11.25;84.56
68189;DHT22;55008;47.514;19.218;2022-10-16T02:44:41;11.15;84.74
68189;DHT22;55008;47.514;19.218;2022-10-16T02:47:09;11.11;84.93
68189;DHT22;55008;47.514;19.218;2022-10-16T02:49:46;11.07;85.07
68189;DHT22;55008;47.514;19.218;2022-10-16T02:52:15;11.02;85.50
68189;DHT22;55008;47.514;19.218;2022-10-16T02:54:44;11.04;85.34
68189;DHT22;55008;47.514;19.218;2022-10-16T02:57:13;10.95;85.66
68189;DHT22;55008;47.514;19.218;2022-10-16T02:59:45;10.85;86.04
68189;DHT22;55008;47.514;19.218;2022-10-16T03:02:14;10.84;86.42
68189;DHT22;55008;47.514;19.218;2022-10-16T03:04:45;10.75;86.53
68189;DHT22;55008;47.514;19.218;2022-10-16T03:07:13;10.56;86.95
68189;DHT22;55008;47.514;19.218;2022-10-16T03:09:41;10.47;87.10
68189;DHT22;55008;47.514;19.218;2022-10-16T03:12:10;10.43;87.25
68189;DHT22;55008;47.514;19.218;2022-10-16T03:14:42;10.39;87.24
68189;DHT22;55008;47.514;19.218;2022-10-16T03:17:12;10.40;86.96
68189;DHT22;55008;47.514;19.218;2022-10-16T03:19:45;10.39;86.99
68189;DHT22;55008;47.514;19.218;2022-10-16T03:22:13;10.36;86.80
68189;DHT22;55008;47.514;19.218;2022-10-16T03:24:42;10.32;86.87
68189;DHT22;55008;47.514;19.218;2022-10-16T03:27:16;10.34;86.58
68189;DHT22;55008;47.514;19.218;2022-10-16T03:29:45;10.30;86.72
68189;DHT22;55008;47.514;19.218;2022-10-16T03:32:14;10.28;86.66
68189;DHT22;55008;47.514;19.218;2022-10-16T03:34:43;10.26;86.84
68189;DHT22;55008;47.514;19.218;2022-10-16T03:37:12;10.22;86.97
68189;DHT22;55008;47.514;19.218;2022-10-16T03:39:40;10.16;87.06
68189;DHT22;55008;47.514;19.218;2022-10-16T03:42:09;10.06;87.10
68189;DHT22;55008;47.514;19.218;2022-10-16T03:44:38;10.01;87.33
68189;DHT22;55008;47.514;19.218;2022-10-16T03:47:09;9.99;87.23
68189;DHT22;55008;47.514;19.218;2022-10-16T03:49:40;9.96;87.33
68189;DHT22;55008;47.514;19.218;2022-10-16T03:52:13;9.96;87.25
68189;DHT22;55008;47.514;19.218;2022-10-16T03:54:46;9.92;87.43
68189;DHT22;55008;47.514;19.218;2022-10-16T03:57:14;9.85;87.39
68189;DHT22;55008;47.514;19.218;2022-10-16T03:59:43;9.85;87.51
68189;DHT22;55008;47.514;19.218;2022-10-16T04:02:13;9.85;87.38
68189;DHT22;55008;47.514;19.218;2022-10-16T04:04:46;9.81;87.55
68189;DHT22;55008;47.514;19.218;2022-10-16T04:07:14;9.78;87.49
68189;DHT22;55008;47.514;19.218;2022-10-16T04:09:43;9.73;87.70
68189;DHT22;55008;47.514;19.218;2022-10-16T04:12:12;9.65;87.84
68189;DHT22;55008;47.514;19.218;2022-10-16T04:14:44;9.58;88.06
68189;DHT22;55008;47.514;19.218;2022-10-16T04:17:13;9.50;88.48
68189;DHT22;55008;47.514;19.218;2022-10-16T04:19:43;9.46;88.59
68189;DHT22;55008;47.514;19.218;2022-10-16T04:22:12;9.44;88.60
68189;DHT22;55008;47.514;19.218;2022-10-16T04:24:42;9.40;88.90
68189;DHT22;55008;47.514;19.218;2022-10-16T04:27:12;9.38;88.97
68189;DHT22;55008;47.514;19.218;2022-10-16T04:29:41;9.41;88.94
68189;DHT22;55008;47.514;19.218;2022-10-16T04:32:16;9.43;88.75
68189;DHT22;55008;47.514;19.218;2022-10-16T04:34:46;9.40;88.57
68189;DHT22;55008;47.514;19.218;2022-10-16T04:37:15;9.37;88.43
68189;DHT22;55008;47.514;19.218;2022-10-16T04:39:46;9.34;88.66
68189;DHT22;55008;47.514;19.218;2022-10-16T04:42:16;9.44;88.36
68189;DHT22;55008;47.514;19.218;2022-10-16T04:44:49;9.44;88.38
68189;DHT22;55008;47.514;19.218;2022-10-16T04:47:22;9.34;88.56
68189;DHT22;55008;47.514;19.218;2022-10-16T04:50:00;9.28;88.80
68189;DHT22;55008;47.514;19.218;2022-10-16T04:52:37;9.30;88.62
68189;DHT22;55008;47.514;19.218;2022-10-16T04:55:07;9.20;88.77
68189;DHT22;55008;47.514;19.218;2022-10-16T04:57:35;9.17;88.71
68189;DHT22;55008;47.514;19.218;2022-10-16T05:00:07;9.13;88.73
68189;DHT22;55008;47.514;19.218;2022-10-16T05:02:36;9.06;89.46
68189;DHT22;55008;47.514;19.218;2022-10-16T05:05:07;9.00;89.55
68189;DHT22;55008;47.514;19.218;2022-10-16T05:07:35;8.96;89.36
68189;DHT22;55008;47.514;19.218;2022-10-16T05:10:07;8.88;89.93
68189;DHT22;55008;47.514;19.218;2022-10-16T05:12:35;8.88;89.90
68189;DHT22;55008;47.514;19.218;2022-10-16T05:15:08;8.82;90.16
68189;DHT22;55008;47.514;19.218;2022-10-16T05:17:37;8.83;90.54
68189;DHT22;55008;47.514;19.218;2022-10-16T05:20:18;8.83;90.44
68189;DHT22;55008;47.514;19.218;2022-10-16T05:22:48;8.92;90.15
68189;DHT22;55008;47.514;19.218;2022-10-16T05:25:20;8.98;90.13
68189;DHT22;55008;47.514;19.218;2022-10-16T05:27:50;9.02;89.73
68189;DHT22;55008;47.514;19.218;2022-10-16T05:30:20;9.02;90.26
68189;DHT22;55008;47.514;19.218;2022-10-16T05:32:49;9.05;90.29
68189;DHT22;55008;47.514;19.218;2022-10-16T05:35:20;9.06;90.34
68189;DHT22;55008;47.514;19.218;2022-10-16T05:37:48;9.03;90.38
68189;DHT22;55008;47.514;19.218;2022-10-16T05:40:17;9.13;90.25
68189;DHT22;55008;47.514;19.218;2022-10-16T05:42:46;9.10;90.28
68189;DHT22;55008;47.514;19.218;2022-10-16T05:45:15;9.17;90.26
68189;DHT22;55008;47.514;19.218;2022-10-16T05:47:43;9.17;90.39
68189;DHT22;55008;47.514;19.218;2022-10-16T05:50:12;9.23;90.12
68189;DHT22;55008;47.514;19.218;2022-10-16T05:52:41;9.28;90.07
68189;DHT22;55008;47.514;19.218;2022-10-16T05:55:10;9.34;89.99
68189;DHT22;55008;47.514;19.218;2022-10-16T05:57:39;9.38;89.93
68189;DHT22;55008;47.514;19.218;2022-10-16T06:00:10;9.48;89.94
68189;DHT22;55008;47.514;19.218;2022-10-16T06:02:38;9.48;89.68
68189;DHT22;55008;47.514;19.218;2022-10-16T06:05:07;9.50;90.00
68189;DHT22;55008;47.514;19.218;2022-10-16T06:07:35;9.55;89.88
68189;DHT22;55008;47.514;19.218;2022-10-16T06:10:09;9.61;89.88
68189;DHT22;55008;47.514;19.218;2022-10-16T06:12:38;9.68;90.10
68189;DHT22;55008;47.514;19.218;2022-10-16T06:15:09;9.75;89.71
68189;DHT22;55008;47.514;19.218;2022-10-16T06:17:38;9.84;89.57
68189;DHT22;55008;47.514;19.218;2022-10-16T06:20:10;9.91;89.19
68189;DHT22;55008;47.514;19.218;2022-10-16T06:22:40;10.01;89.27
68189;DHT22;55008;47.514;19.218;2022-10-16T06:25:10;10.06;89.42
68189;DHT22;55008;47.514;19.218;2022-10-16T06:27:42;10.17;88.75
68189;DHT22;55008;47.514;19.218;2022-10-16T06:30:10;10.23;88.65
68189;DHT22;55008;47.514;19.218;2022-10-16T06:32:41;10.37;88.25
68189;DHT22;55008;47.514;19.218;2022-10-16T06:35:12;10.53;88.39
68189;DHT22;55008;47.514;19.218;2022-10-16T06:37:42;10.60;87.37
68189;DHT22;55008;47.514;19.218;2022-10-16T06:40:12;10.67;87.72
68189;DHT22;55008;47.514;19.218;2022-10-16T06:42:41;10.77;87.92
68189;DHT22;55008;47.514;19.218;2022-10-16T06:45:10;10.88;88.02
68189;DHT22;55008;47.514;19.218;2022-10-16T06:47:42;10.94;87.70
68189;DHT22;55008;47.514;19.218;2022-10-16T06:50:11;11.00;87.24
68189;DHT22;55008;47.514;19.218;2022-10-16T06:52:44;11.22;86.74
68189;DHT22;55008;47.514;19.218;2022-10-16T06:55:14;11.38;86.03
68189;DHT22;55008;47.514;19.218;2022-10-16T06:57:48;11.50;85.27
68189;DHT22;55008;47.514;19.218;2022-10-16T07:00:20;11.63;84.10
68189;DHT22;55008;47.514;19.218;2022-10-16T07:02:55;11.78;83.50
68189;DHT22;55008;47.514;19.218;2022-10-16T07:05:28;11.90;82.53
68189;DHT22;55008;47.514;19.218;2022-10-16T07:08:05;12.04;81.97
68189;DHT22;55008;47.514;19.218;2022-10-16T07:10:35;12.14;82.11
68189;DHT22;55008;47.514;19.218;2022-10-16T07:13:04;12.25;81.54
68189;DHT22;55008;47.514;19.218;2022-10-16T07:15:34;12.36;81.30
68189;DHT22;55008;47.514;19.218;2022-10-16T07:18:04;12.56;80.07
68189;DHT22;55008;47.514;19.218;2022-10-16T07:20:34;12.66;79.40
68189;DHT22;55008;47.514;19.218;2022-10-16T07:23:07;12.70;79.26
68189;DHT22;55008;47.514;19.218;2022-10-16T07:25:37;12.73;79.31
68189;DHT22;55008;47.514;19.218;2022-10-16T07:28:09;12.83;79.17
68189;DHT22;55008;47.514;19.218;2022-10-16T07:30:37;12.99;78.61
68189;DHT22;55008;47.514;19.218;2022-10-16T07:33:07;13.03;78.19
68189;DHT22;55008;47.514;19.218;2022-10-16T07:35:35;13.06;78.79
68189;DHT22;55008;47.514;19.218;2022-10-16T07:38:04;13.08;77.21
68189;DHT22;55008;47.514;19.218;2022-10-16T07:40:40;13.18;77.71
68189;DHT22;55008;47.514;19.218;2022-10-16T07:43:09;13.27;77.02
68189;DHT22;55008;47.514;19.218;2022-10-16T07:45:46;13.21;77.77
68189;DHT22;55008;47.514;19.218;2022-10-16T07:48:16;13.23;77.96
68189;DHT22;55008;47.514;19.218;2022-10-16T07:50:45;13.38;77.01
68189;DHT22;55008;47.514;19.218;2022-10-16T07:53:15;13.41;76.56
68189;DHT22;55008;47.514;19.218;2022-10-16T07:55:47;13.41;76.82
68189;DHT22;55008;47.514;19.218;2022-10-16T07:58:15;13.45;77.20
68189;DHT22;55008;47.514;19.218;2022-10-16T08:00:46;13.58;76.85
68189;DHT22;55008;47.514;19.218;2022-10-16T08:03:14;13.68;76.04
68189;DHT22;55008;47.514;19.218;2022-10-16T08:05:42;13.71;75.78
68189;DHT22;55008;47.514;19.218;2022-10-16T08:08:14;13.75;76.24
68189;DHT22;55008;47.514;19.218;2022-10-16T08:10:43;13.80;76.90
68189;DHT22;55008;47.514;19.218;2022-10-16T08:13:13;13.95;76.49
68189;DHT22;55008;47.514;19.218;2022-10-16T08:15:47;14.02;75.75
68189;DHT22;55008;47.514;19.218;2022-10-16T08:18:18;14.06;76.24
68189;DHT22;55008;47.514;19.218;2022-10-16T08:20:46;14.17;74.88
68189;DHT22;55008;47.514;19.218;2022-10-16T08:23:19;14.23;75.11
68189;DHT22;55008;47.514;19.218;2022-10-16T08:25:47;14.42;74.99
68189;DHT22;55008;47.514;19.218;2022-10-16T08:28:21;14.45;74.46
68189;DHT22;55008;47.514;19.218;2022-10-16T08:30:52;14.56;73.99
68189;DHT22;55008;47.514;19.218;2022-10-16T08:33:21;14.56;73.38
68189;DHT22;55008;47.514;19.218;2022-10-16T08:35:53;14.64;73.58
68189;DHT22;55008;47.514;19.218;2022-10-16T08:38:23;14.77;73.76
68189;DHT22;55008;47.514;19.218;2022-10-16T08:40:58;14.86;72.78
68189;DHT22;55008;47.514;19.218;2022-10-16T08:43:42;14.93;73.26
68189;DHT22;55008;47.514;19.218;2022-10-16T08:46:21;14.93;72.41
68189;DHT22;55008;47.514;19.218;2022-10-16T08:48:54;15.03;72.34
68189;DHT22;55008;47.514;19.218;2022-10-16T08:51:24;15.15;71.88
68189;DHT22;55008;47.514;19.218;2022-10-16T08:53:55;15.09;71.93
68189;DHT22;55008;47.514;19.218;2022-10-16T08:56:25;15.26;71.94
68189;DHT22;55008;47.514;19.218;2022-10-16T08:59:01;15.33;71.62
68189;DHT22;55008;47.514;19.218;2022-10-16T09:01:41;15.46;70.63
68189;DHT22;55008;47.514;19.218;2022-10-16T09:04:37;15.57;70.63
68189;DHT22;55008;47.514;19.218;2022-10-16T09:07:13;15.68;70.14
68189;DHT22;55008;47.514;19.218;2022-10-16T09:09:56;15.80;70.45
68189;DHT22;55008;47.514;19.218;2022-10-16T09:12:36;15.95;70.19
68189;DHT22;55008;47.514;19.218;2022-10-16T09:15:17;15.97;70.14
68189;DHT22;55008;47.514;19.218;2022-10-16T09:17:54;16.12;68.94
68189;DHT22;55008;47.514;19.218;2022-10-16T09:20:33;16.15;67.91
68189;DHT22;55008;47.514;19.218;2022-10-16T09:23:18;16.25;68.43
68189;DHT22;55008;47.514;19.218;2022-10-16T09:25:48;16.29;68.03
68189;DHT22;55008;47.514;19.218;2022-10-16T09:28:19;16.40;69.68
68189;DHT22;55008;47.514;19.218;2022-10-16T09:30:49;16.52;68.15
68189;DHT22;55008;47.514;19.218;2022-10-16T09:33:20;16.70;67.83
68189;DHT22;55008;47.514;19.218;2022-10-16T09:35:50;16.71;66.86
68189;DHT22;55008;47.514;19.218;2022-10-16T09:38:25;16.85;68.44
68189;DHT22;55008;47.514;19.218;2022-10-16T09:40:56;16.92;66.67
68189;DHT22;55008;47.514;19.218;2022-10-16T09:43:34;17.00;68.06
68189;DHT22;55008;47.514;19.218;2022-10-16T09:46:19;17.06;67.39
68189;DHT22;55008;47.514;19.218;2022-10-16T09:48:52;17.14;68.35
68189;DHT22;55008;47.514;19.218;2022-10-16T09:51:24;17.27;67.44
68189;DHT22;55008;47.514;19.218;2022-10-16T09:53:56;17.31;66.47
68189;DHT22;55008;47.514;19.218;2022-10-16T09:56:27;17.38;65.52
68189;DHT22;55008;47.514;19.218;2022-10-16T09:58:57;17.45;65.06
68189;DHT22;55008;47.514;19.218;2022-10-16T10:01:35;17.57;64.86
68189;DHT22;55008;47.514;19.218;2022-10-16T10:04:08;17.56;64.63
68189;DHT22;55008;47.514;19.218;2022-10-16T10:06:43;17.50;64.43
68189;DHT22;55008;47.514;19.218;2022-10-16T10:09:22;17.52;64.47
68189;DHT22;55008;47.514;19.218;2022-10-16T10:11:56;17.57;65.15
68189;DHT22;55008;47.514;19.218;2022-10-16T10:14:27;17.62;66.20
68189;DHT22;55008;47.514;19.218;2022-10-16T10:17:16;17.77;64.68
68189;DHT22;55008;47.514;19.218;2022-10-16T10:19:50;17.89;65.09
68189;DHT22;55008;47.514;19.218;2022-10-16T10:22:22;17.94;63.79
68189;DHT22;55008;47.514;19.218;2022-10-16T10:25:04;18.08;64.88
68189;DHT22;55008;47.514;19.218;2022-10-16T10:27:42;18.11;64.73
68189;DHT22;55008;47.514;19.218;2022-10-16T10:30:20;18.24;63.58
68189;DHT22;55008;47.514;19.218;2022-10-16T10:33:05;18.32;63.43
68189;DHT22;55008;47.514;19.218;2022-10-16T10:35:42;18.32;64.28
68189;DHT22;55008;47.514;19.218;2022-10-16T10:38:30;18.42;63.35
68189;DHT22;55008;47.514;19.218;2022-10-16T10:41:13;18.42;62.87
68189;DHT22;55008;47.514;19.218;2022-10-16T10:43:55;18.58;62.30
68189;DHT22;55008;47.514;19.218;2022-10-16T10:46:34;18.56;62.21
68189;DHT22;55008;47.514;19.218;2022-10-16T10:49:39;18.72;62.69
68189;DHT22;55008;47.514;19.218;2022-10-16T10:52:34;18.85;62.01
68189;DHT22;55008;47.514;19.218;2022-10-16T10:55:16;18.93;61.28
68189;DHT22;55008;47.514;19.218;2022-10-16T10:58:03;19.06;61.66
68189;DHT22;55008;47.514;19.218;2022-10-16T11:00:45;19.10;60.49
68189;DHT22;55008;47.514;19.218;2022-10-16T11:03:32;19.13;60.66
68189;DHT22;55008;47.514;19.218;2022-10-16T11:06:12;19.35;61.74
68189;DHT22;55008;47.514;19.218;2022-10-16T11:08:47;19.46;60.16
68189;DHT22;55008;47.514;19.218;2022-10-16T11:11:20;19.55;60.11
68189;DHT22;55008;47.514;19.218;2022-10-16T11:13:55;19.74;59.29
68189;DHT22;55008;47.514;19.218;2022-10-16T11:16:28;19.68;59.41
68189;DHT22;55008;47.514;19.218;2022-10-16T11:19:00;19.74;58.44
68189;DHT22;55008;47.514;19.218;2022-10-16T11:21:37;19.88;59.16
68189;DHT22;55008;47.514;19.218;2022-10-16T11:24:17;19.78;58.45
68189;DHT22;55008;47.514;19.218;2022-10-16T11:26:48;19.90;59.13
68189;DHT22;55008;47.514;19.218;2022-10-16T11:29:24;19.95;58.79
68189;DHT22;55008;47.514;19.218;2022-10-16T11:31:58;19.96;58.81
68189;DHT22;55008;47.514;19.218;2022-10-16T11:34:34;20.08;57.86
68189;DHT22;55008;47.514;19.218;2022-10-16T11:37:11;20.20;59.53
68189;DHT22;55008;47.514;19.218;2022-10-16T11:39:43;20.17;57.47
68189;DHT22;55008;47.514;19.218;2022-10-16T11:42:16;20.27;58.76
68189;DHT22;55008;47.514;19.218;2022-10-16T11:44:53;20.33;57.15
68189;DHT22;55008;47.514;19.218;2022-10-16T11:47:34;20.32;57.27
68189;DHT22;55008;47.514;19.218;2022-10-16T11:50:26;20.41;57.11
68189;DHT22;55008;47.514;19.218;2022-10-16T11:53:02;20.53;56.25
68189;DHT22;55008;47.514;19.218;2022-10-16T11:55:36;20.64;56.20
68189;DHT22;55008;47.514;19.218;2022-10-16T11:58:20;20.85;55.44
68189;DHT22;55008;47.514;19.218;2022-10-16T12:00:58;20.91;54.74
68189;DHT22;55008;47.514;19.218;2022-10-16T12:03:34;21.05;53.93
68189;DHT22;55008;47.514;19.218;2022-10-16T12:06:13;21.01;55.98
68189;DHT22;55008;47.514;19.218;2022-10-16T12:08:49;21.02;55.91
68189;DHT22;55008;47.514;19.218;2022-10-16T12:11:30;21.21;55.42
68189;DHT22;55008;47.514;19.218;2022-10-16T12:14:17;21.21;54.08
68189;DHT22;55008;47.514;19.218;2022-10-16T12:16:54;21.33;54.31
68189;DHT22;55008;47.514;19.218;2022-10-16T12:19:24;21.21;53.15
68189;DHT22;55008;47.514;19.218;2022-10-16T12:21:55;21.29;54.06
68189;DHT22;55008;47.514;19.218;2022-10-16T12:24:33;21.13;54.62
68189;DHT22;55008;47.514;19.218;2022-10-16T12:27:02;21.56;54.45
68189;DHT22;55008;47.514;19.218;2022-10-16T12:29:36;21.05;54.19
68189;DHT22;55008;47.514;19.218;2022-10-16T12:32:25;21.26;52.65
68189;DHT22;55008;47.514;19.218;2022-10-16T12:35:24;21.23;53.29
68189;DHT22;55008;47.514;19.218;2022-10-16T12:37:54;21.40;53.25
68189;DHT22;55008;47.514;19.218;2022-10-16T12:40:38;21.39;52.57
68189;DHT22;55008;47.514;19.218;2022-10-16T12:43:24;21.56;51.99
68189;DHT22;55008;47.514;19.218;2022-10-16T12:46:01;21.63;51.23
68189;DHT22;55008;47.514;19.218;2022-10-16T12:48:39;21.78;51.56
68189;DHT22;55008;47.514;19.218;2022-10-16T12:51:37;21.91;52.76
68189;DHT22;55008;47.514;19.218;2022-10-16T12:54:13;21.76;52.15
68189;DHT22;55008;47.514;19.218;2022-10-16T12:56:51;22.00;50.82
68189;DHT22;55008;47.514;19.218;2022-10-16T12:59:32;22.17;49.94
68189;DHT22;55008;47.514;19.218;2022-10-16T13:02:28;22.24;50.95
68189;DHT22;55008;47.514;19.218;2022-10-16T13:05:15;22.22;50.55
68189;DHT22;55008;47.514;19.218;2022-10-16T13:07:55;21.96;50.15
68189;DHT22;55008;47.514;19.218;2022-10-16T13:10:30;21.73;50.43
68189;DHT22;55008;47.514;19.218;2022-10-16T13:13:17;21.26;51.76
68189;DHT22;55008;47.514;19.218;2022-10-16T13:16:08;20.84;52.60
68189;DHT22;55008;47.514;19.218;2022-10-16T13:18:50;20.68;52.94
68189;DHT22;55008;47.514;19.218;2022-10-16T13:21:30;20.47;55.84
68189;DHT22;55008;47.514;19.218;2022-10-16T13:24:14;20.37;54.04
68189;DHT22;55008;47.514;19.218;2022-10-16T13:26:52;20.13;54.22
68189;DHT22;55008;47.514;19.218;2022-10-16T13:29:31;20.09;55.46
68189;DHT22;55008;47.514;19.218;2022-10-16T13:32:09;19.95;56.05
68189;DHT22;55008;47.514;19.218;2022-10-16T13:34:45;20.02;55.23
68189;DHT22;55008;47.514;19.218;2022-10-16T13:37:21;19.95;54.72
68189;DHT22;55008;47.514;19.218;2022-10-16T13:40:11;20.00;55.74
68189;DHT22;55008;47.514;19.218;2022-10-16T13:42:45;20.00;54.99
68189;DHT22;55008;47.514;19.218;2022-10-16T13:45:24;19.93;54.94
68189;DHT22;55008;47.514;19.218;2022-10-16T13:48:05;19.92;54.79
68189;DHT22;55008;47.514;19.218;2022-10-16T13:50:45;19.93;53.50
68189;DHT22;55008;47.514;19.218;2022-10-16T13:53:14;19.86;54.46
68189;DHT22;55008;47.514;19.218;2022-10-16T13:55:45;19.93;55.25
68189;DHT22;55008;47.514;19.218;2022-10-16T13:58:14;19.88;55.39
68189;DHT22;55008;47.514;19.218;2022-10-16T14:00:57;19.82;54.44
68189;DHT22;55008;47.514;19.218;2022-10-16T14:03:28;19.59;56.46
68189;DHT22;55008;47.514;19.218;2022-10-16T14:06:00;19.54;57.35
68189;DHT22;55008;47.514;19.218;2022-10-16T14:08:31;19.57;56.39
68189;DHT22;55008;47.514;19.218;2022-10-16T14:11:07;19.51;56.97
68189;DHT22;55008;47.514;19.218;2022-10-16T14:13:38;19.51;55.70
68189;DHT22;55008;47.514;19.218;2022-10-16T14:16:18;19.53;56.05
68189;DHT22;55008;47.514;19.218;2022-10-16T14:18:56;19.47;57.17
68189;DHT22;55008;47.514;19.218;2022-10-16T14:21:26;19.47;57.05
68189;DHT22;55008;47.514;19.218;2022-10-16T14:23:56;19.38;56.52
68189;DHT22;55008;47.514;19.218;2022-10-16T14:26:29;19.40;56.72
68189;DHT22;55008;47.514;19.218;2022-10-16T14:29:13;19.32;57.31
68189;DHT22;55008;47.514;19.218;2022-10-16T14:31:56;19.26;57.57
68189;DHT22;55008;47.514;19.218;2022-10-16T14:34:32;19.20;58.11
68189;DHT22;55008;47.514;19.218;2022-10-16T14:37:09;19.19;58.01
68189;DHT22;55008;47.514;19.218;2022-10-16T14:39:42;19.17;58.49
68189;DHT22;55008;47.514;19.218;2022-10-16T14:42:24;18.96;60.93
68189;DHT22;55008;47.514;19.218;2022-10-16T14:44:54;18.88;60.54
68189;DHT22;55008;47.514;19.218;2022-10-16T14:47:38;18.82;60.76
68189;DHT22;55008;47.514;19.218;2022-10-16T14:50:17;18.73;60.63
68189;DHT22;55008;47.514;19.218;2022-10-16T14:52:47;18.76;59.71
68189;DHT22;55008;47.514;19.218;2022-10-16T14:55:23;18.65;60.11
68189;DHT22;55008;47.514;19.218;2022-10-16T14:57:52;18.68;59.86
68189;DHT22;55008;47.514;19.218;2022-10-16T15:00:29;18.59;60.89
68189;DHT22;55008;47.514;19.218;2022-10-16T15:02:59;18.47;61.38
68189;DHT22;55008;47.514;19.218;2022-10-16T15:05:31;18.40;61.26
68189;DHT22;55008;47.514;19.218;2022-10-16T15:08:00;18.30;61.64
68189;DHT22;55008;47.514;19.218;2022-10-16T15:10:35;18.20;62.31
68189;DHT22;55008;47.514;19.218;2022-10-16T15:13:12;18.08;63.38
68189;DHT22;55008;47.514;19.218;2022-10-16T15:15:46;17.98;63.51
68189;DHT22;55008;47.514;19.218;2022-10-16T15:18:17;17.94;63.41
68189;DHT22;55008;47.514;19.218;2022-10-16T15:20:49;17.84;62.81
68189;DHT22;55008;47.514;19.218;2022-10-16T15:23:22;17.77;63.43
68189;DHT22;55008;47.514;19.218;2022-10-16T15:25:57;17.72;64.39
68189;DHT22;55008;47.514;19.218;2022-10-16T15:28:30;17.63;65.45
68189;DHT22;55008;47.514;19.218;2022-10-16T15:31:05;17.52;66.32
68189;DHT22;55008;47.514;19.218;2022-10-16T15:33:39;17.46;65.16
68189;DHT22;55008;47.514;19.218;2022-10-16T15:36:13;17.35;65.41
68189;DHT22;55008;47.514;19.218;2022-10-16T15:38:45;17.21;66.15
68189;DHT22;55008;47.514;19.218;2022-10-16T15:41:16;17.11;66.29
68189;DHT22;55008;47.514;19.218;2022-10-16T15:43:48;17.00;66.14
68189;DHT22;55008;47.514;19.218;2022-10-16T15:46:19;16.91;66.68
68189;DHT22;55008;47.514;19.218;2022-10-16T15:48:50;16.81;66.79
68189;DHT22;55008;47.514;19.218;2022-10-16T15:51:19;16.76;67.32
68189;DHT22;55008;47.514;19.218;2022-10-16T15:53:48;16.71;67.32
68189;DHT22;55008;47.514;19.218;2022-10-16T15:56:23;16.60;68.52
68189;DHT22;55008;47.514;19.218;2022-10-16T15:58:52;16.53;67.90